createdAt,value
2022-09-14T00:01:24.681Z,15.13
2022-09-14T00:03:58.277Z,17.10
2022-09-14T00:06:25.620Z,14.23
2022-09-14T00:08:54.038Z,17.88
2022-09-14T00:11:22.943Z,15.77
2022-09-14T00:13:50.310Z,16.38
2022-09-14T00:16:26.331Z,16.65
2022-09-14T00:18:56.377Z,17.35
2022-09-14T00:21:24.482Z,18.00
2022-09-14T00:23:51.013Z,15.93
2022-09-14T00:26:20.710Z,16.88
2022-09-14T00:28:50.666Z,17.80
2022-09-14T00:31:18.529Z,16.85
2022-09-14T00:33:49.797Z,15.68
2022-09-14T00:36:22.513Z,15.63
2022-09-14T00:38:49.709Z,16.92
2022-09-14T00:41:22.142Z,18.80
2022-09-14T00:44:09.950Z,18.23
2022-09-14T00:46:48.129Z,18.17
2022-09-14T00:49:20.530Z,17.52
2022-09-14T00:51:58.730Z,17.63
2022-09-14T00:54:26.169Z,17.70
2022-09-14T00:56:54.121Z,18.23
2022-09-14T00:59:25.485Z,19.75
2022-09-14T01:01:52.080Z,18.63
2022-09-14T01:04:18.796Z,18.98
2022-09-14T01:06:54.218Z,17.95
2022-09-14T01:09:20.665Z,15.70
2022-09-14T01:11:54.150Z,16.48
2022-09-14T01:14:45.406Z,16.13
2022-09-14T01:17:50.751Z,18.67
2022-09-14T01:20:39.827Z,15.57
2022-09-14T01:23:24.759Z,17.10
2022-09-14T01:26:16.096Z,17.45
2022-09-14T01:28:50.980Z,19.30
2022-09-14T01:31:39.312Z,19.88
2022-09-14T01:34:13.833Z,21.10
2022-09-14T01:36:45.813Z,19.77
2022-09-14T01:39:14.822Z,17.65
2022-09-14T01:41:42.320Z,18.35
2022-09-14T01:44:16.234Z,20.75
2022-09-14T01:47:08.445Z,18.30
2022-09-14T01:49:43.989Z,20.23
2022-09-14T01:52:31.531Z,21.00
2022-09-14T01:55:05.813Z,20.05
2022-09-14T01:57:56.073Z,20.13
2022-09-14T02:00:23.075Z,19.42
2022-09-14T02:03:01.322Z,20.10
2022-09-14T02:05:52.882Z,16.98
2022-09-14T02:08:19.614Z,20.23
2022-09-14T02:10:46.600Z,20.67
2022-09-14T02:13:13.759Z,19.23
2022-09-14T02:15:40.413Z,19.85
2022-09-14T02:18:07.037Z,20.20
2022-09-14T02:20:37.580Z,17.45
2022-09-14T02:23:04.513Z,20.55
2022-09-14T02:25:31.853Z,20.42
2022-09-14T02:27:58.381Z,18.17
2022-09-14T02:30:25.669Z,20.48
2022-09-14T02:33:19.229Z,22.73
2022-09-14T02:35:51.651Z,19.80
2022-09-14T02:38:49.619Z,21.33
2022-09-14T02:41:37.042Z,22.33
2022-09-14T02:44:15.177Z,17.45
2022-09-14T02:46:56.423Z,20.33
2022-09-14T02:49:29.918Z,20.50
2022-09-14T02:52:27.034Z,20.98
2022-09-14T02:54:58.977Z,20.58
2022-09-14T02:57:26.148Z,20.27
2022-09-14T02:59:55.654Z,19.75
2022-09-14T03:02:22.775Z,18.15
2022-09-14T03:04:49.366Z,20.60
2022-09-14T03:07:15.878Z,18.75
2022-09-14T03:09:42.557Z,19.10
2022-09-14T03:12:09.103Z,18.77
2022-09-14T03:14:35.601Z,17.27
2022-09-14T03:17:02.110Z,16.77
2022-09-14T03:19:28.598Z,16.85
2022-09-14T03:21:55.101Z,15.07
2022-09-14T03:24:21.807Z,14.18
2022-09-14T03:26:52.019Z,15.45
2022-09-14T03:29:18.545Z,15.23
2022-09-14T03:31:45.145Z,11.82
2022-09-14T03:34:11.714Z,16.58
2022-09-14T03:36:38.227Z,14.98
2022-09-14T03:39:04.722Z,13.65
2022-09-14T03:41:31.265Z,12.40
2022-09-14T03:43:57.766Z,13.57
2022-09-14T03:46:25.218Z,14.35
2022-09-14T03:48:53.630Z,14.68
2022-09-14T03:51:20.152Z,13.48
2022-09-14T03:53:46.882Z,15.32
2022-09-14T03:56:19.835Z,14.50
2022-09-14T03:58:48.218Z,13.70
2022-09-14T04:01:17.771Z,13.68
2022-09-14T04:03:45.241Z,13.80
2022-09-14T04:06:12.347Z,11.98
2022-09-14T04:08:41.087Z,12.52
2022-09-14T04:11:19.110Z,12.25
2022-09-14T04:13:46.554Z,10.77
2022-09-14T04:16:13.725Z,10.45
2022-09-14T04:18:40.397Z,11.23
2022-09-14T04:21:11.309Z,10.02
2022-09-14T04:24:02.944Z,13.02
2022-09-14T04:26:27.176Z,11.05
2022-09-14T04:28:55.179Z,11.43
2022-09-14T04:31:21.874Z,10.30
2022-09-14T04:33:50.534Z,11.18
2022-09-14T04:36:19.785Z,11.85
2022-09-14T04:38:46.767Z,11.45
2022-09-14T04:41:15.626Z,9.45
2022-09-14T04:43:44.032Z,11.38
2022-09-14T04:46:19.828Z,8.98
2022-09-14T04:48:47.107Z,10.30
2022-09-14T04:51:19.390Z,9.30
2022-09-14T04:53:47.897Z,10.15
2022-09-14T04:56:15.680Z,9.50
2022-09-14T04:58:48.251Z,11.32
2022-09-14T05:01:19.755Z,11.57
2022-09-14T05:03:46.695Z,10.30
2022-09-14T05:06:16.057Z,10.57
2022-09-14T05:08:43.462Z,9.98
2022-09-14T05:11:13.418Z,11.73
2022-09-14T05:13:40.715Z,11.90
2022-09-14T05:16:10.490Z,11.65
2022-09-14T05:18:37.462Z,12.63
2022-09-14T05:21:10.271Z,11.63
2022-09-14T05:23:37.088Z,11.38
2022-09-14T05:26:04.901Z,12.40
2022-09-14T05:28:34.225Z,9.98
2022-09-14T05:31:08.159Z,9.63
2022-09-14T05:33:35.278Z,12.07
2022-09-14T05:36:04.174Z,10.73
2022-09-14T05:38:32.151Z,11.63
2022-09-14T05:40:58.756Z,10.27
2022-09-14T05:43:25.891Z,9.98
2022-09-14T05:45:52.574Z,10.52
2022-09-14T05:48:19.272Z,9.60
2022-09-14T05:50:45.798Z,10.27
2022-09-14T05:53:12.406Z,10.35
2022-09-14T05:55:38.929Z,8.88
2022-09-14T05:58:05.771Z,8.20
2022-09-14T06:00:32.286Z,10.07
2022-09-14T06:02:58.843Z,11.02
2022-09-14T06:05:25.460Z,10.13
2022-09-14T06:07:53.191Z,8.15
2022-09-14T06:10:21.309Z,8.60
2022-09-14T06:12:51.173Z,9.50
2022-09-14T06:15:20.033Z,9.75
2022-09-14T06:17:46.535Z,8.80
2022-09-14T06:20:13.047Z,8.73
2022-09-14T06:22:39.554Z,9.10
2022-09-14T06:25:06.555Z,8.82
2022-09-14T06:27:33.079Z,9.50
2022-09-14T06:29:59.612Z,9.60
2022-09-14T06:32:27.206Z,8.93
2022-09-14T06:34:53.735Z,10.00
2022-09-14T06:37:20.262Z,10.40
2022-09-14T06:39:46.843Z,9.85
2022-09-14T06:42:13.364Z,9.13
2022-09-14T06:44:40.216Z,9.80
2022-09-14T06:47:07.131Z,9.60
2022-09-14T06:49:33.728Z,10.23
2022-09-14T06:52:00.770Z,9.20
2022-09-14T06:54:27.896Z,8.15
2022-09-14T06:56:54.442Z,8.77
2022-09-14T06:59:20.977Z,9.43
2022-09-14T07:01:50.623Z,9.20
2022-09-14T07:04:17.829Z,9.20
2022-09-14T07:06:46.923Z,8.40
2022-09-14T07:09:14.482Z,8.75
2022-09-14T07:11:42.023Z,8.45
2022-09-14T07:14:09.353Z,8.95
2022-09-14T07:16:37.355Z,8.43
2022-09-14T07:19:06.716Z,8.20
2022-09-14T07:21:34.295Z,8.32
2022-09-14T07:24:01.054Z,8.52
2022-09-14T07:26:33.526Z,8.20
2022-09-14T07:29:04.713Z,8.02
2022-09-14T07:31:33.104Z,8.95
2022-09-14T07:34:04.619Z,8.45
2022-09-14T07:36:34.989Z,5.50
2022-09-14T07:39:02.843Z,5.80
2022-09-14T07:41:30.611Z,6.30
2022-09-14T07:44:00.194Z,6.63
2022-09-14T07:46:28.981Z,5.53
2022-09-14T07:49:00.624Z,6.57
2022-09-14T07:51:28.237Z,6.20
2022-09-14T07:53:55.559Z,6.07
2022-09-14T07:56:22.295Z,5.45
2022-09-14T07:58:53.998Z,7.07
2022-09-14T08:01:21.874Z,5.30
2022-09-14T08:03:48.785Z,4.80
2022-09-14T08:06:23.711Z,5.50
2022-09-14T08:08:52.078Z,4.75
2022-09-14T08:11:30.347Z,5.60
2022-09-14T08:14:11.262Z,6.07
2022-09-14T08:16:39.140Z,5.93
2022-09-14T08:19:11.637Z,5.50
2022-09-14T08:21:42.778Z,5.65
2022-09-14T08:24:13.460Z,5.65
2022-09-14T08:26:40.710Z,5.05
2022-09-14T08:29:07.901Z,5.50
2022-09-14T08:31:38.692Z,6.00
2022-09-14T08:34:06.230Z,6.20
2022-09-14T08:36:35.306Z,6.55
2022-09-14T08:39:02.296Z,6.63
2022-09-14T08:41:32.926Z,5.53
2022-09-14T08:44:16.589Z,5.53
2022-09-14T08:46:51.368Z,5.53
2022-09-14T08:49:24.392Z,5.47
2022-09-14T08:51:51.815Z,5.47
2022-09-14T08:54:18.811Z,7.13
2022-09-14T08:56:50.725Z,6.22
2022-09-14T08:59:31.370Z,6.05
2022-09-14T09:02:03.461Z,5.05
2022-09-14T09:04:48.875Z,5.60
2022-09-14T09:07:33.477Z,5.72
2022-09-14T09:10:01.223Z,5.95
2022-09-14T09:12:39.673Z,5.45
2022-09-14T09:15:42.064Z,5.55
2022-09-14T09:18:39.208Z,5.18
2022-09-14T09:21:20.021Z,5.20
2022-09-14T09:23:46.873Z,5.43
2022-09-14T09:26:26.992Z,4.85
2022-09-14T09:28:56.911Z,5.38
2022-09-14T09:31:32.935Z,5.40
2022-09-14T09:34:00.687Z,4.97
2022-09-14T09:36:33.941Z,5.18
2022-09-14T09:39:04.438Z,4.63
2022-09-14T09:41:47.333Z,5.10
2022-09-14T09:44:14.657Z,4.32
2022-09-14T09:46:57.961Z,4.15
2022-09-14T09:49:31.874Z,4.00
2022-09-14T09:52:14.469Z,4.00
2022-09-14T09:54:43.824Z,4.13
2022-09-14T09:57:34.610Z,4.63
2022-09-14T10:00:13.867Z,4.93
2022-09-14T10:02:41.442Z,4.30
2022-09-14T10:05:10.999Z,4.10
2022-09-14T10:07:48.670Z,4.45
2022-09-14T10:10:17.546Z,5.30
2022-09-14T10:12:53.088Z,4.07
2022-09-14T10:15:25.934Z,4.45
2022-09-14T10:18:11.028Z,3.88
2022-09-14T10:21:08.138Z,4.30
2022-09-14T10:23:39.466Z,4.00
2022-09-14T10:26:12.849Z,3.60
2022-09-14T10:28:44.843Z,3.88
2022-09-14T10:31:20.009Z,3.58
2022-09-14T10:33:49.846Z,4.25
2022-09-14T10:36:37.337Z,4.10
2022-09-14T10:39:29.777Z,4.10
2022-09-14T10:42:07.577Z,3.35
2022-09-14T10:44:59.430Z,4.07
2022-09-14T10:47:44.746Z,4.15
2022-09-14T10:51:04.891Z,4.10
2022-09-14T10:53:55.455Z,4.25
2022-09-14T10:56:48.456Z,4.05
2022-09-14T10:59:27.670Z,4.78
2022-09-14T11:02:27.070Z,4.65
2022-09-14T11:05:14.501Z,4.90
2022-09-14T11:07:58.999Z,5.00
2022-09-14T11:10:33.837Z,5.00
2022-09-14T11:13:25.322Z,4.78
2022-09-14T11:16:30.597Z,4.97
2022-09-14T11:19:18.907Z,5.60
2022-09-14T11:22:09.199Z,6.90
2022-09-14T11:24:46.811Z,6.95
2022-09-14T11:27:29.194Z,6.95
2022-09-14T11:30:05.494Z,8.27
2022-09-14T11:32:38.999Z,6.90
2022-09-14T11:35:25.385Z,8.23
2022-09-14T11:38:00.767Z,7.85
2022-09-14T11:40:41.651Z,7.50
2022-09-14T11:43:16.020Z,7.72
2022-09-14T11:45:55.113Z,8.57
2022-09-14T11:48:46.182Z,8.85
2022-09-14T11:51:19.254Z,8.65
2022-09-14T11:53:46.410Z,9.73
2022-09-14T11:56:26.191Z,9.20
2022-09-14T11:58:54.987Z,8.75
2022-09-14T12:01:36.951Z,9.40
2022-09-14T12:04:12.928Z,9.20
2022-09-14T12:06:39.442Z,8.23
2022-09-14T12:09:20.784Z,9.15
2022-09-14T12:11:53.326Z,8.73
2022-09-14T12:14:29.504Z,9.00
2022-09-14T12:17:45.166Z,8.40
2022-09-14T12:20:23.593Z,8.43
2022-09-14T12:22:50.491Z,8.20
2022-09-14T12:25:20.549Z,8.45
2022-09-14T12:27:48.598Z,8.95
2022-09-14T12:30:40.920Z,8.52
2022-09-14T12:33:32.691Z,8.18
2022-09-14T12:36:22.360Z,8.07
2022-09-14T12:38:55.023Z,8.07
2022-09-14T12:41:21.483Z,7.13
2022-09-14T12:43:51.157Z,7.55
2022-09-14T12:46:20.932Z,7.95
2022-09-14T12:48:47.722Z,7.38
2022-09-14T12:51:36.480Z,7.25
2022-09-14T12:54:08.910Z,7.68
2022-09-14T12:57:00.257Z,7.90
2022-09-14T12:59:54.217Z,6.63
2022-09-14T13:02:58.946Z,7.70
2022-09-14T13:05:29.565Z,6.75
2022-09-14T13:07:56.722Z,7.60
2022-09-14T13:10:31.854Z,7.70
2022-09-14T13:15:44.723Z,7.88
2022-09-14T13:18:17.297Z,8.07
2022-09-14T13:20:52.142Z,7.47
2022-09-14T13:23:31.980Z,10.13
2022-09-14T13:25:59.266Z,8.07
2022-09-14T13:28:29.738Z,8.23
2022-09-14T13:30:58.838Z,7.80
2022-09-14T13:33:25.738Z,7.63
2022-09-14T13:35:55.059Z,8.20
2022-09-14T13:38:29.381Z,7.30
2022-09-14T13:41:05.281Z,8.07
2022-09-14T13:43:32.620Z,7.55
2022-09-14T13:45:59.302Z,7.95
2022-09-14T13:48:26.104Z,7.72
2022-09-14T13:50:52.851Z,8.02
2022-09-14T13:53:40.459Z,9.30
2022-09-14T13:56:20.327Z,8.68
2022-09-14T13:58:49.000Z,9.32
2022-09-14T14:01:29.092Z,9.95
2022-09-14T14:03:55.820Z,9.40
2022-09-14T14:06:22.407Z,9.98
2022-09-14T14:09:10.004Z,11.23
2022-09-14T14:11:51.983Z,10.70
2022-09-14T14:14:28.801Z,11.20
2022-09-14T14:17:20.186Z,11.65
2022-09-14T14:19:47.411Z,11.52
2022-09-14T14:22:13.866Z,12.48
2022-09-14T14:25:11.922Z,13.00
2022-09-14T14:27:37.937Z,12.60
2022-09-14T14:30:17.630Z,13.35
2022-09-14T14:32:49.248Z,15.25
2022-09-14T14:35:19.839Z,15.40
2022-09-14T14:37:47.684Z,12.32
2022-09-14T14:40:15.319Z,16.05
2022-09-14T14:42:42.628Z,14.93
2022-09-14T14:45:36.670Z,14.65
2022-09-14T14:48:04.341Z,13.75
2022-09-14T14:50:33.866Z,15.77
2022-09-14T14:53:01.510Z,14.13
2022-09-14T14:55:31.965Z,16.60
2022-09-14T14:58:00.959Z,14.68
2022-09-14T15:00:30.136Z,15.98
2022-09-14T15:02:56.646Z,17.90
2022-09-14T15:05:23.285Z,15.07
2022-09-14T15:07:52.350Z,19.70
2022-09-14T15:10:19.922Z,20.02
2022-09-14T15:12:46.484Z,19.08
2022-09-14T15:15:18.869Z,19.20
2022-09-14T15:17:45.546Z,17.40
2022-09-14T15:20:12.937Z,17.25
2022-09-14T15:22:43.420Z,20.05
2022-09-14T15:25:12.014Z,20.35
2022-09-14T15:27:39.361Z,22.45
2022-09-14T15:30:07.146Z,21.13
2022-09-14T15:32:33.718Z,18.83
2022-09-14T15:35:00.232Z,19.85
2022-09-14T15:37:27.139Z,21.30
2022-09-14T15:39:53.731Z,21.10
2022-09-14T15:42:20.378Z,22.08
2022-09-14T15:44:47.008Z,21.52
2022-09-14T15:47:14.644Z,19.58
2022-09-14T15:49:42.259Z,18.92
2022-09-14T15:52:10.930Z,17.77
2022-09-14T15:54:38.764Z,16.73
2022-09-14T15:57:08.350Z,18.38
2022-09-14T15:59:35.174Z,20.27
2022-09-14T16:02:01.844Z,20.77
2022-09-14T16:04:28.903Z,21.58
2022-09-14T16:06:55.433Z,21.98
2022-09-14T16:09:22.480Z,21.10
2022-09-14T16:11:49.761Z,21.25
2022-09-14T16:14:16.319Z,23.02
2022-09-14T16:16:42.890Z,24.10
2022-09-14T16:19:13.231Z,24.90
2022-09-14T16:21:41.202Z,27.08
2022-09-14T16:24:12.141Z,25.70
2022-09-14T16:26:39.679Z,21.92
2022-09-14T16:29:08.385Z,22.88
2022-09-14T16:31:36.943Z,20.33
2022-09-14T16:34:07.585Z,25.55
2022-09-14T16:36:38.091Z,23.20
2022-09-14T16:39:07.778Z,21.50
2022-09-14T16:41:35.781Z,23.35
2022-09-14T16:44:03.878Z,20.20
2022-09-14T16:46:31.794Z,22.70
2022-09-14T16:48:58.700Z,18.90
2022-09-14T16:51:27.770Z,23.60
2022-09-14T16:53:54.782Z,21.23
2022-09-14T16:56:23.687Z,20.92
2022-09-14T16:58:52.710Z,22.55
2022-09-14T17:01:21.134Z,22.13
2022-09-14T17:03:50.464Z,20.95
2022-09-14T17:06:20.032Z,20.35
2022-09-14T17:08:47.704Z,25.65
2022-09-14T17:11:15.634Z,25.13
2022-09-14T17:13:44.196Z,25.17
2022-09-14T17:16:14.116Z,20.75
2022-09-14T17:18:43.085Z,24.50
2022-09-14T17:21:13.117Z,25.90
2022-09-14T17:23:40.953Z,25.70
2022-09-14T17:26:10.067Z,22.90
2022-09-14T17:28:37.881Z,22.38
2022-09-14T17:31:06.903Z,24.95
2022-09-14T17:33:35.634Z,17.42
2022-09-14T17:36:05.261Z,9.85
2022-09-14T17:38:34.785Z,7.78
2022-09-14T17:41:10.722Z,11.07
2022-09-14T17:43:38.720Z,15.27
2022-09-14T17:46:07.079Z,18.88
2022-09-14T17:48:35.617Z,21.40
2022-09-14T17:51:10.865Z,9.70
2022-09-14T17:53:42.474Z,6.20
2022-09-14T17:56:11.680Z,7.57
2022-09-14T17:58:39.017Z,6.90
2022-09-14T18:01:06.938Z,7.38
2022-09-14T18:03:33.728Z,7.57
2022-09-14T18:06:01.146Z,7.38
2022-09-14T18:08:27.664Z,5.95
2022-09-14T18:10:54.177Z,5.90
2022-09-14T18:13:20.794Z,4.68
2022-09-14T18:15:47.557Z,4.63
2022-09-14T18:18:14.147Z,4.80
2022-09-14T18:20:40.691Z,3.80
2022-09-14T18:23:07.257Z,4.05
2022-09-14T18:25:33.863Z,3.47
2022-09-14T18:28:00.379Z,2.63
2022-09-14T18:30:26.971Z,2.88
2022-09-14T18:32:53.756Z,2.60
2022-09-14T18:35:20.379Z,2.28
2022-09-14T18:37:46.891Z,2.30
2022-09-14T18:40:16.118Z,2.92
2022-09-14T18:42:46.633Z,3.00
2022-09-14T18:45:13.125Z,3.00
2022-09-14T18:47:39.663Z,3.50
2022-09-14T18:50:06.685Z,3.40
2022-09-14T18:52:33.361Z,3.65
2022-09-14T18:54:59.871Z,3.97
2022-09-14T18:57:27.822Z,3.60
2022-09-14T18:59:54.581Z,3.10
2022-09-14T19:02:21.257Z,3.83
2022-09-14T19:04:48.617Z,3.30
2022-09-14T19:07:15.123Z,4.30
2022-09-14T19:09:41.757Z,3.67
2022-09-14T19:12:08.270Z,4.32
2022-09-14T19:14:34.775Z,4.30
2022-09-14T19:17:01.483Z,3.78
2022-09-14T19:19:27.985Z,3.65
2022-09-14T19:21:54.527Z,3.45
2022-09-14T19:24:21.148Z,2.88
2022-09-14T19:26:51.716Z,2.95
2022-09-14T19:29:22.840Z,3.00
2022-09-14T19:31:53.370Z,2.72
2022-09-14T19:34:21.801Z,2.95
2022-09-14T19:36:48.685Z,2.38
2022-09-14T19:39:15.761Z,2.97
2022-09-14T19:41:42.683Z,3.05
2022-09-14T19:44:11.201Z,3.13
2022-09-14T19:46:39.421Z,2.65
2022-09-14T19:49:13.229Z,3.20
2022-09-14T19:51:39.921Z,3.10
2022-09-14T19:54:06.606Z,3.53
2022-09-14T19:56:33.190Z,4.00
2022-09-14T19:59:01.359Z,3.38
2022-09-14T20:01:29.963Z,3.95
2022-09-14T20:03:57.175Z,2.58
2022-09-14T20:06:31.349Z,2.60
2022-09-14T20:09:05.598Z,2.40
2022-09-14T20:11:34.825Z,2.20
2022-09-14T20:14:03.169Z,2.20
2022-09-14T20:16:33.002Z,2.63
2022-09-14T20:19:07.137Z,2.75
2022-09-14T20:21:35.950Z,2.67
2022-09-14T20:24:15.765Z,2.33
2022-09-14T20:26:47.832Z,2.00
2022-09-14T20:29:16.305Z,2.80
2022-09-14T20:31:43.403Z,2.70
2022-09-14T20:34:10.613Z,2.30
2022-09-14T20:36:37.712Z,2.30
2022-09-14T20:39:04.505Z,2.50
2022-09-14T20:41:33.182Z,2.55
2022-09-14T20:43:59.830Z,2.67
2022-09-14T20:46:31.424Z,2.90
2022-09-14T20:48:58.509Z,2.40
2022-09-14T20:51:25.703Z,2.72
2022-09-14T20:53:52.873Z,3.05
2022-09-14T20:56:25.129Z,3.00
2022-09-14T20:58:57.138Z,2.78
2022-09-14T21:01:26.061Z,3.00
2022-09-14T21:03:53.346Z,2.83
2022-09-14T21:06:26.698Z,3.20
2022-09-14T21:08:53.483Z,3.55
2022-09-14T21:11:24.897Z,2.83
2022-09-14T21:13:53.763Z,2.33
2022-09-14T21:16:31.761Z,2.80
2022-09-14T21:19:07.192Z,2.63
2022-09-14T21:21:34.194Z,3.17
2022-09-14T21:24:01.394Z,2.92
2022-09-14T21:26:31.947Z,2.90
2022-09-14T21:29:00.802Z,3.22
2022-09-14T21:31:29.784Z,3.75
2022-09-14T21:33:58.788Z,3.00
2022-09-14T21:36:28.468Z,3.55
2022-09-14T21:38:57.461Z,3.95
2022-09-14T21:41:26.115Z,4.05
2022-09-14T21:43:53.432Z,4.25
2022-09-14T21:46:20.370Z,4.30
2022-09-14T21:48:47.186Z,4.10
2022-09-14T21:51:34.434Z,4.00
2022-09-14T21:54:06.439Z,3.75
2022-09-14T21:56:36.573Z,1.65
2022-09-14T21:59:05.939Z,1.40
2022-09-14T22:01:33.074Z,1.25
2022-09-14T22:04:00.051Z,1.15
2022-09-14T22:06:28.535Z,1.05
2022-09-14T22:09:00.908Z,1.23
2022-09-14T22:11:31.078Z,1.00
2022-09-14T22:14:07.987Z,1.00
2022-09-14T22:16:36.854Z,0.90
2022-09-14T22:19:08.706Z,1.17
2022-09-14T22:21:37.093Z,0.77
2022-09-14T22:24:06.534Z,1.00
2022-09-14T22:26:34.326Z,1.10
2022-09-14T22:29:01.534Z,1.00
2022-09-14T22:31:29.420Z,0.88
2022-09-14T22:33:57.445Z,1.05
2022-09-14T22:36:25.586Z,0.93
2022-09-14T22:38:55.578Z,1.08
2022-09-14T22:41:22.725Z,1.40
2022-09-14T22:43:49.434Z,1.10
2022-09-14T22:46:17.068Z,1.20
2022-09-14T22:48:44.519Z,1.52
2022-09-14T22:51:14.543Z,1.38
2022-09-14T22:53:41.446Z,1.60
2022-09-14T22:56:10.365Z,1.38
2022-09-14T22:58:37.789Z,1.30
2022-09-14T23:01:09.337Z,1.40
2022-09-14T23:03:35.943Z,1.50
2022-09-14T23:06:03.277Z,1.67
2022-09-14T23:08:30.689Z,1.50
2022-09-14T23:10:57.563Z,1.67
2022-09-14T23:13:24.232Z,2.10
2022-09-14T23:15:50.897Z,1.50
2022-09-14T23:18:17.393Z,1.98
2022-09-14T23:20:45.085Z,1.63
2022-09-14T23:23:12.114Z,1.50
2022-09-14T23:25:40.581Z,1.50
2022-09-14T23:28:10.030Z,1.92
2022-09-14T23:30:36.778Z,1.98
2022-09-14T23:33:03.596Z,2.10
2022-09-14T23:35:30.300Z,1.77
2022-09-14T23:37:57.225Z,2.17
2022-09-14T23:40:23.807Z,2.10
2022-09-14T23:42:50.740Z,2.20
2022-09-14T23:45:17.510Z,2.10
2022-09-14T23:47:45.871Z,2.13
2022-09-14T23:50:12.584Z,1.92
2022-09-14T23:52:40.141Z,2.05
2022-09-14T23:55:07.139Z,2.00
2022-09-14T23:57:33.697Z,2.30
